createdAt,value
2019-02-23T00:01:35.641Z,26.37
2019-02-23T00:06:38.932Z,27.47
2019-02-23T00:11:42.218Z,27.73
2019-02-23T00:16:45.509Z,27.67
2019-02-23T00:21:48.797Z,27.67
2019-02-23T00:26:52.092Z,25.90
2019-02-23T00:31:55.372Z,27.17
2019-02-23T00:36:58.905Z,27.60
2019-02-23T00:42:02.204Z,25.10
2019-02-23T00:47:05.489Z,25.93
2019-02-23T00:52:08.771Z,25.83
2019-02-23T00:57:12.307Z,25.63
2019-02-23T01:02:15.838Z,24.37
2019-02-23T01:07:21.156Z,26.57
2019-02-23T01:12:24.701Z,25.07
2019-02-23T01:17:28.316Z,24.53
2019-02-23T01:22:31.686Z,25.67
2019-02-23T01:27:35.231Z,23.60
2019-02-23T01:32:38.514Z,25.07
2019-02-23T01:37:41.817Z,23.20
2019-02-23T01:42:45.333Z,24.27
2019-02-23T01:47:48.878Z,22.80
2019-02-23T01:52:52.465Z,23.70
2019-02-23T01:57:55.752Z,22.70
2019-02-23T02:02:59.041Z,22.37
2019-02-23T02:08:02.333Z,20.17
2019-02-23T02:13:05.688Z,19.20
2019-02-23T02:18:08.970Z,20.93
2019-02-23T02:23:12.504Z,19.63
2019-02-23T02:28:16.031Z,21.23
2019-02-23T02:33:19.569Z,17.50
2019-02-23T02:38:22.850Z,19.23
2019-02-23T02:43:26.137Z,20.60
2019-02-23T02:48:29.664Z,19.90
2019-02-23T02:53:32.960Z,20.40
2019-02-23T02:58:36.316Z,19.57
2019-02-23T03:03:39.546Z,20.97
2019-02-23T03:08:43.069Z,17.63
2019-02-23T03:13:46.364Z,18.93
2019-02-23T03:18:49.913Z,17.87
2019-02-23T03:23:53.201Z,16.63
2019-02-23T03:28:56.477Z,19.57
2019-02-23T03:34:00.002Z,16.03
2019-02-23T03:39:03.904Z,17.17
2019-02-23T03:44:07.194Z,16.37
2019-02-23T03:49:10.727Z,16.40
2019-02-23T03:54:14.280Z,17.87
2019-02-23T03:59:17.637Z,16.07
2019-02-23T04:04:20.926Z,16.13
2019-02-23T04:09:24.211Z,15.73
2019-02-23T04:14:27.512Z,14.90
2019-02-23T04:19:30.801Z,15.70
2019-02-23T04:24:34.325Z,14.40
2019-02-23T04:29:37.620Z,15.47
2019-02-23T04:34:41.145Z,14.57
2019-02-23T04:39:44.426Z,15.70
2019-02-23T04:44:47.709Z,14.50
2019-02-23T04:49:55.309Z,17.60
2019-02-23T04:54:58.637Z,14.50
2019-02-23T05:00:01.953Z,15.97
2019-02-23T05:05:06.112Z,16.97
2019-02-23T05:10:09.454Z,16.40
2019-02-23T05:15:12.747Z,15.17
2019-02-23T05:20:16.032Z,14.00
2019-02-23T05:25:19.322Z,17.73
2019-02-23T05:30:22.614Z,17.07
2019-02-23T05:35:26.132Z,17.40
2019-02-23T05:40:29.425Z,15.13
2019-02-23T05:45:32.952Z,15.77
2019-02-23T05:50:38.052Z,15.50
2019-02-23T05:55:41.574Z,15.03
2019-02-23T06:00:44.857Z,16.00
2019-02-23T06:05:48.147Z,15.17
2019-02-23T06:10:51.676Z,15.37
2019-02-23T06:15:54.959Z,16.97
2019-02-23T06:20:58.488Z,16.73
2019-02-23T06:26:02.187Z,15.20
2019-02-23T06:31:05.640Z,16.83
2019-02-23T06:36:09.196Z,15.97
2019-02-23T06:41:12.732Z,14.97
2019-02-23T06:46:16.274Z,15.70
2019-02-23T06:51:19.561Z,16.87
2019-02-23T06:56:22.859Z,16.13
2019-02-23T07:01:26.399Z,13.43
2019-02-23T07:06:29.926Z,13.63
2019-02-23T07:11:33.462Z,14.03
2019-02-23T07:16:37.005Z,19.43
2019-02-23T07:21:40.987Z,16.17
2019-02-23T07:26:44.605Z,14.80
2019-02-23T07:31:48.155Z,14.93
2019-02-23T07:36:51.684Z,14.90
2019-02-23T07:41:56.440Z,16.97
2019-02-23T07:47:09.061Z,17.87
2019-02-23T07:52:14.277Z,14.77
2019-02-23T07:57:19.371Z,16.87
2019-02-23T08:02:29.996Z,15.63
2019-02-23T08:07:33.535Z,19.70
2019-02-23T08:12:37.079Z,17.77
2019-02-23T08:17:40.356Z,16.30
2019-02-23T08:22:43.883Z,15.37
2019-02-23T08:27:47.208Z,13.13
2019-02-23T08:32:50.724Z,14.53
2019-02-23T08:37:53.994Z,12.40
2019-02-23T08:42:57.530Z,13.87
2019-02-23T08:48:00.848Z,16.10
2019-02-23T08:53:04.335Z,13.80
2019-02-23T08:58:08.231Z,12.97
2019-02-23T09:03:11.511Z,14.00
2019-02-23T09:08:14.794Z,10.90
2019-02-23T09:13:18.084Z,12.00
2019-02-23T09:18:21.648Z,12.40
2019-02-23T09:23:24.945Z,11.50
2019-02-23T09:28:28.701Z,13.20
2019-02-23T09:33:31.991Z,12.00
2019-02-23T09:38:35.531Z,12.73
2019-02-23T09:43:39.148Z,10.40
2019-02-23T09:48:42.506Z,9.87
2019-02-23T09:53:46.101Z,10.17
2019-02-23T09:58:49.382Z,10.43
2019-02-23T10:03:52.652Z,10.50
2019-02-23T10:08:56.033Z,9.27
2019-02-23T10:13:59.393Z,13.37
2019-02-23T10:19:02.683Z,8.63
2019-02-23T10:24:06.242Z,11.50
2019-02-23T10:29:09.619Z,10.97
2019-02-23T10:34:13.193Z,11.77
2019-02-23T10:39:16.459Z,9.63
2019-02-23T10:44:20.056Z,8.73
2019-02-23T10:49:23.551Z,10.20
2019-02-23T10:54:26.836Z,11.70
2019-02-23T10:59:30.356Z,9.63
2019-02-23T11:04:34.036Z,10.90
2019-02-23T11:09:37.767Z,9.03
2019-02-23T11:14:41.025Z,9.67
2019-02-23T11:19:44.334Z,11.13
2019-02-23T11:24:48.013Z,8.87
2019-02-23T11:29:51.300Z,9.03
2019-02-23T11:34:54.592Z,8.30
2019-02-23T11:39:57.908Z,7.43
2019-02-23T11:45:01.186Z,5.60
2019-02-23T11:50:06.515Z,7.50
2019-02-23T11:55:09.877Z,5.20
2019-02-23T12:00:14.399Z,4.93
2019-02-23T12:05:17.929Z,3.60
2019-02-23T12:10:21.224Z,3.77
2019-02-23T12:15:24.530Z,7.47
2019-02-23T12:20:27.840Z,4.30
2019-02-23T12:25:31.196Z,4.40
2019-02-23T12:30:34.486Z,4.23
2019-02-23T12:35:37.801Z,4.47
2019-02-23T12:40:41.332Z,3.70
2019-02-23T12:45:44.874Z,4.07
2019-02-23T12:50:48.387Z,3.83
2019-02-23T12:55:51.946Z,4.97
2019-02-23T13:00:55.481Z,3.53
2019-02-23T13:05:58.783Z,7.00
2019-02-23T13:11:02.380Z,7.77
2019-02-23T13:16:08.836Z,8.37
2019-02-23T13:21:32.131Z,6.07
2019-02-23T13:26:58.168Z,6.57
2019-02-23T13:32:10.398Z,6.47
2019-02-23T13:37:22.607Z,6.00
2019-02-23T13:42:50.221Z,6.70
2019-02-23T13:47:59.227Z,7.63
2019-02-23T13:53:11.539Z,8.83
2019-02-23T13:58:30.130Z,7.33
2019-02-23T14:03:39.520Z,7.43
2019-02-23T14:09:09.420Z,7.77
2019-02-23T14:14:24.880Z,8.40
2019-02-23T14:19:59.917Z,6.03
2019-02-23T14:25:24.730Z,9.80
2019-02-23T14:30:47.613Z,8.60
2019-02-23T14:35:56.997Z,10.30
2019-02-23T14:41:12.478Z,9.53
2019-02-23T14:46:39.568Z,10.73
2019-02-23T14:52:04.119Z,9.10
2019-02-23T14:57:31.735Z,13.40
2019-02-23T15:02:41.151Z,9.60
2019-02-23T15:08:05.427Z,11.90
2019-02-23T15:13:42.295Z,13.90
2019-02-23T15:18:57.736Z,14.80
2019-02-23T15:24:09.857Z,17.53
2019-02-23T15:29:37.685Z,17.03
2019-02-23T15:35:02.216Z,15.03
2019-02-23T15:40:23.763Z,12.70
2019-02-23T15:45:48.499Z,15.53
2019-02-23T15:50:51.793Z,14.57
2019-02-23T15:55:55.304Z,15.00
2019-02-23T16:00:58.825Z,14.23
2019-02-23T16:06:02.109Z,15.30
2019-02-23T16:11:05.409Z,14.93
2019-02-23T16:16:08.733Z,14.90
2019-02-23T16:21:12.266Z,13.70
2019-02-23T16:26:15.857Z,13.43
2019-02-23T16:31:19.413Z,13.10
2019-02-23T16:36:22.762Z,13.13
2019-02-23T16:41:26.073Z,16.87
2019-02-23T16:46:30.222Z,12.77
2019-02-23T16:51:33.571Z,15.97
2019-02-23T16:56:36.850Z,16.57
2019-02-23T17:01:40.425Z,14.57
2019-02-23T17:06:43.992Z,17.20
2019-02-23T17:11:47.286Z,12.77
2019-02-23T17:16:50.806Z,18.37
2019-02-23T17:21:54.092Z,17.23
2019-02-23T17:26:57.384Z,16.47
2019-02-23T17:32:00.918Z,16.23
2019-02-23T17:37:04.445Z,15.27
2019-02-23T17:42:07.888Z,14.77
2019-02-23T17:47:11.612Z,17.30
2019-02-23T17:52:14.996Z,16.47
2019-02-23T17:57:18.286Z,17.03
2019-02-23T18:02:21.592Z,18.33
2019-02-23T18:07:25.229Z,17.97
2019-02-23T18:12:29.714Z,19.00
2019-02-23T18:17:34.732Z,19.03
2019-02-23T18:22:38.040Z,19.67
2019-02-23T18:27:41.623Z,17.93
2019-02-23T18:32:45.153Z,21.40
2019-02-23T18:37:48.694Z,23.37
2019-02-23T18:42:52.223Z,20.43
2019-02-23T18:47:55.780Z,20.10
2019-02-23T18:52:59.077Z,23.37
2019-02-23T18:58:02.377Z,21.93
2019-02-23T19:03:06.373Z,21.47
2019-02-23T19:08:09.939Z,19.73
2019-02-23T19:13:13.248Z,21.57
2019-02-23T19:18:16.771Z,23.67
2019-02-23T19:23:20.084Z,22.57
2019-02-23T19:28:23.621Z,21.70
2019-02-23T19:33:27.164Z,20.13
2019-02-23T19:38:30.849Z,22.43
2019-02-23T19:43:34.435Z,18.30
2019-02-23T19:48:37.972Z,20.73
2019-02-23T19:53:42.563Z,22.07
2019-02-23T19:58:46.085Z,18.63
2019-02-23T20:03:49.639Z,20.57
2019-02-23T20:08:52.940Z,18.03
2019-02-23T20:13:56.236Z,17.27
2019-02-23T20:18:59.515Z,14.53
2019-02-23T20:24:02.793Z,13.67
2019-02-23T20:29:06.067Z,15.03
2019-02-23T20:34:09.347Z,14.60
2019-02-23T20:39:12.636Z,14.67
2019-02-23T20:44:15.925Z,14.50
2019-02-23T20:49:19.287Z,14.63
2019-02-23T20:54:23.715Z,15.30
2019-02-23T20:59:27.003Z,15.03
2019-02-23T21:04:30.537Z,17.27
2019-02-23T21:09:34.082Z,14.23
2019-02-23T21:14:37.364Z,17.13
2019-02-23T21:19:40.663Z,17.80
2019-02-23T21:24:44.207Z,13.33
2019-02-23T21:29:47.744Z,14.97
2019-02-23T21:34:51.334Z,17.40
2019-02-23T21:39:54.876Z,12.60
2019-02-23T21:44:58.145Z,15.90
2019-02-23T21:50:01.669Z,11.73
2019-02-23T21:55:05.385Z,9.87
2019-02-23T22:00:10.106Z,8.50
2019-02-23T22:05:13.590Z,9.97
2019-02-23T22:10:16.874Z,10.47
2019-02-23T22:15:20.154Z,9.00
2019-02-23T22:20:23.707Z,9.37
2019-02-23T22:25:27.214Z,11.63
2019-02-23T22:30:30.481Z,9.87
2019-02-23T22:35:34.019Z,9.43
2019-02-23T22:40:37.277Z,9.13
2019-02-23T22:45:40.806Z,9.23
2019-02-23T22:50:44.326Z,7.90
2019-02-23T22:55:47.878Z,8.00
2019-02-23T23:00:55.673Z,7.80
2019-02-23T23:05:59.009Z,8.53
2019-02-23T23:11:02.477Z,8.37
2019-02-23T23:16:06.039Z,8.63
2019-02-23T23:21:09.316Z,8.00
2019-02-23T23:26:14.366Z,10.37
2019-02-23T23:31:18.238Z,8.63
2019-02-23T23:36:23.277Z,9.97
2019-02-23T23:41:26.806Z,10.63
2019-02-23T23:46:30.083Z,7.77
2019-02-23T23:51:33.618Z,10.03
2019-02-23T23:56:38.446Z,8.73
